createdAt,value
2023-04-15T00:01:50.321Z,11.86
2023-04-15T00:04:37.592Z,13.70
2023-04-15T00:07:24.243Z,14.72
2023-04-15T00:10:11.050Z,13.86
2023-04-15T00:12:57.670Z,12.93
2023-04-15T00:15:44.082Z,12.32
2023-04-15T00:18:31.793Z,11.87
2023-04-15T00:21:18.554Z,11.51
2023-04-15T00:24:05.372Z,11.72
2023-04-15T00:26:51.674Z,13.52
2023-04-15T00:29:38.219Z,14.42
2023-04-15T00:32:24.689Z,13.58
2023-04-15T00:35:11.725Z,12.68
2023-04-15T00:37:59.821Z,12.03
2023-04-15T00:40:46.390Z,11.54
2023-04-15T00:43:32.835Z,11.57
2023-04-15T00:46:21.456Z,13.30
2023-04-15T00:49:07.905Z,14.56
2023-04-15T00:51:54.624Z,13.91
2023-04-15T00:54:41.440Z,12.87
2023-04-15T00:57:28.893Z,12.10
2023-04-15T01:00:16.633Z,11.59
2023-04-15T01:03:03.442Z,11.42
2023-04-15T01:05:50.436Z,12.89
2023-04-15T01:08:36.928Z,13.61
2023-04-15T01:11:24.195Z,12.82
2023-04-15T01:14:11.331Z,12.06
2023-04-15T01:16:57.876Z,11.73
2023-04-15T01:19:44.202Z,13.30
2023-04-15T01:22:33.407Z,14.39
2023-04-15T01:25:20.650Z,13.45
2023-04-15T01:28:07.397Z,12.55
2023-04-15T01:31:27.378Z,11.96
2023-04-15T01:34:14.385Z,12.42
2023-04-15T01:37:01.306Z,13.85
2023-04-15T01:39:48.187Z,13.37
2023-04-15T01:42:37.641Z,12.58
2023-04-15T01:45:24.230Z,11.94
2023-04-15T01:48:10.549Z,12.20
2023-04-15T01:50:58.378Z,13.91
2023-04-15T01:53:44.757Z,15.08
2023-04-15T01:56:31.108Z,14.77
2023-04-15T01:59:17.925Z,13.46
2023-04-15T02:02:05.588Z,12.53
2023-04-15T02:04:52.138Z,11.96
2023-04-15T02:07:38.880Z,11.99
2023-04-15T02:10:25.738Z,13.67
2023-04-15T02:13:12.224Z,14.85
2023-04-15T02:15:59.820Z,14.21
2023-04-15T02:18:47.125Z,13.19
2023-04-15T02:21:33.414Z,12.41
2023-04-15T02:24:19.830Z,11.91
2023-04-15T02:27:06.337Z,12.13
2023-04-15T02:29:53.084Z,13.87
2023-04-15T02:32:40.861Z,15.01
2023-04-15T02:35:27.825Z,14.45
2023-04-15T02:38:16.805Z,13.40
2023-04-15T02:41:03.656Z,12.68
2023-04-15T02:43:50.328Z,12.15
2023-04-15T02:46:37.298Z,12.85
2023-04-15T02:49:25.264Z,14.63
2023-04-15T02:52:11.675Z,14.93
2023-04-15T02:55:00.824Z,13.92
2023-04-15T02:57:47.239Z,13.02
2023-04-15T03:00:33.652Z,12.43
2023-04-15T03:03:20.474Z,12.76
2023-04-15T03:06:07.083Z,14.30
2023-04-15T03:08:54.061Z,14.20
2023-04-15T03:11:42.248Z,13.33
2023-04-15T03:14:29.628Z,12.63
2023-04-15T03:17:16.556Z,12.71
2023-04-15T03:20:05.810Z,14.45
2023-04-15T03:22:52.811Z,14.83
2023-04-15T03:25:40.631Z,13.86
2023-04-15T03:28:27.388Z,13.10
2023-04-15T03:31:15.563Z,12.55
2023-04-15T03:34:02.508Z,13.75
2023-04-15T03:36:49.213Z,15.02
2023-04-15T03:39:35.815Z,14.23
2023-04-15T03:42:22.279Z,13.29
2023-04-15T03:45:10.030Z,12.71
2023-04-15T03:48:03.608Z,12.68
2023-04-15T03:50:58.209Z,14.38
2023-04-15T03:53:44.822Z,15.00
2023-04-15T03:56:31.419Z,14.15
2023-04-15T03:59:17.923Z,13.24
2023-04-15T04:02:04.620Z,12.66
2023-04-15T04:04:51.966Z,12.81
2023-04-15T04:07:38.869Z,14.55
2023-04-15T04:10:25.775Z,15.27
2023-04-15T04:13:12.275Z,14.29
2023-04-15T04:15:58.870Z,13.38
2023-04-15T04:18:45.112Z,12.77
2023-04-15T04:21:34.204Z,12.40
2023-04-15T04:24:20.738Z,13.57
2023-04-15T04:27:07.444Z,15.05
2023-04-15T04:29:54.095Z,14.66
2023-04-15T04:32:40.914Z,13.65
2023-04-15T04:35:27.512Z,12.93
2023-04-15T04:38:13.880Z,12.48
2023-04-15T04:41:00.741Z,12.79
2023-04-15T04:43:47.252Z,14.49
2023-04-15T04:46:33.996Z,14.59
2023-04-15T04:49:20.542Z,13.72
2023-04-15T04:52:07.268Z,12.94
2023-04-15T04:54:53.632Z,12.49
2023-04-15T04:57:40.424Z,12.77
2023-04-15T05:00:26.896Z,14.58
2023-04-15T05:03:13.404Z,15.52
2023-04-15T05:06:00.788Z,14.55
2023-04-15T05:08:47.141Z,13.65
2023-04-15T05:11:33.762Z,13.07
2023-04-15T05:14:21.130Z,13.00
2023-04-15T05:17:09.091Z,14.70
2023-04-15T05:19:55.403Z,15.52
2023-04-15T05:22:42.248Z,14.66
2023-04-15T05:25:29.274Z,13.71
2023-04-15T05:28:15.807Z,13.09
2023-04-15T05:31:02.756Z,12.66
2023-04-15T05:33:49.347Z,12.92
2023-04-15T05:36:36.853Z,14.71
2023-04-15T05:39:23.380Z,15.59
2023-04-15T05:42:09.803Z,14.66
2023-04-15T05:44:56.399Z,13.73
2023-04-15T05:47:43.210Z,13.09
2023-04-15T05:50:29.620Z,13.53
2023-04-15T05:53:15.927Z,15.01
2023-04-15T05:56:02.530Z,14.61
2023-04-15T05:58:49.309Z,13.72
2023-04-15T06:01:36.207Z,13.07
2023-04-15T06:04:23.016Z,13.20
2023-04-15T06:07:10.354Z,14.69
2023-04-15T06:09:57.607Z,14.59
2023-04-15T06:12:44.288Z,13.76
2023-04-15T06:15:31.747Z,13.09
2023-04-15T06:18:18.755Z,14.05
2023-04-15T06:21:05.992Z,15.35
2023-04-15T06:23:53.294Z,14.85
2023-04-15T06:26:40.025Z,13.73
2023-04-15T06:29:26.733Z,13.50
2023-04-15T06:32:13.453Z,14.93
2023-04-15T06:35:00.455Z,15.59
2023-04-15T06:37:46.967Z,14.84
2023-04-15T06:40:33.632Z,13.79
2023-04-15T06:43:20.917Z,13.92
2023-04-15T06:46:07.725Z,15.24
2023-04-15T06:48:54.049Z,15.18
2023-04-15T06:51:42.750Z,14.10
2023-04-15T06:54:29.520Z,14.36
2023-04-15T06:57:16.184Z,15.43
2023-04-15T07:00:05.804Z,15.16
2023-04-15T07:02:52.935Z,14.05
2023-04-15T07:05:39.677Z,13.81
2023-04-15T07:08:26.538Z,15.29
2023-04-15T07:11:13.151Z,16.08
2023-04-15T07:13:59.717Z,15.40
2023-04-15T07:16:46.248Z,14.27
2023-04-15T07:19:33.078Z,14.39
2023-04-15T07:22:19.743Z,15.68
2023-04-15T07:25:07.571Z,16.19
2023-04-15T07:27:54.265Z,15.43
2023-04-15T07:30:40.681Z,14.26
2023-04-15T07:33:27.337Z,14.18
2023-04-15T07:36:14.142Z,15.44
2023-04-15T07:39:03.536Z,15.87
2023-04-15T07:41:50.438Z,14.88
2023-04-15T07:44:37.534Z,14.48
2023-04-15T07:47:24.195Z,15.50
2023-04-15T07:50:11.603Z,16.40
2023-04-15T07:52:58.518Z,16.25
2023-04-15T07:55:45.368Z,15.07
2023-04-15T07:58:31.693Z,14.65
2023-04-15T08:01:18.538Z,15.95
2023-04-15T08:04:05.561Z,16.84
2023-04-15T08:06:52.699Z,16.69
2023-04-15T08:09:39.541Z,15.29
2023-04-15T08:12:26.427Z,14.53
2023-04-15T08:15:13.580Z,15.53
2023-04-15T08:18:03.050Z,16.60
2023-04-15T08:20:49.640Z,16.28
2023-04-15T08:23:36.293Z,15.03
2023-04-15T08:26:22.975Z,14.72
2023-04-15T08:29:10.061Z,16.01
2023-04-15T08:31:56.985Z,16.65
2023-04-15T08:34:44.877Z,16.14
2023-04-15T08:37:31.278Z,15.05
2023-04-15T08:40:18.158Z,15.15
2023-04-15T08:43:06.112Z,16.53
2023-04-15T08:45:53.071Z,17.14
2023-04-15T08:48:40.792Z,16.21
2023-04-15T08:51:29.859Z,15.13
2023-04-15T08:54:16.492Z,14.90
2023-04-15T08:57:04.020Z,16.22
2023-04-15T08:59:51.106Z,16.77
2023-04-15T09:02:37.779Z,15.85
2023-04-15T09:05:24.507Z,14.87
2023-04-15T09:08:11.305Z,15.77
2023-04-15T09:10:58.054Z,16.86
2023-04-15T09:13:44.572Z,16.69
2023-04-15T09:16:31.903Z,15.56
2023-04-15T09:19:23.206Z,15.12
2023-04-15T09:22:09.906Z,16.38
2023-04-15T09:24:56.341Z,17.37
2023-04-15T09:27:54.103Z,17.00
2023-04-15T09:30:46.644Z,15.77
2023-04-15T09:33:33.399Z,15.09
2023-04-15T09:36:19.925Z,16.20
2023-04-15T09:39:07.196Z,17.09
2023-04-15T09:42:07.668Z,16.43
2023-04-15T09:44:54.175Z,15.33
2023-04-15T09:47:41.383Z,15.24
2023-04-15T09:50:32.189Z,16.59
2023-04-15T09:53:20.625Z,17.32
2023-04-15T09:56:11.108Z,16.58
2023-04-15T09:58:59.176Z,15.78
2023-04-15T10:01:46.534Z,16.78
2023-04-15T10:04:36.662Z,17.83
2023-04-15T10:07:23.966Z,17.40
2023-04-15T10:10:11.532Z,16.24
2023-04-15T10:12:58.007Z,15.97
2023-04-15T10:15:47.517Z,17.40
2023-04-15T10:18:38.133Z,17.91
2023-04-15T10:21:24.881Z,17.01
2023-04-15T10:24:12.371Z,16.20
2023-04-15T10:27:00.635Z,16.91
2023-04-15T10:29:49.509Z,18.21
2023-04-15T10:32:37.257Z,17.89
2023-04-15T10:35:24.591Z,16.69
2023-04-15T10:38:33.793Z,15.71
2023-04-15T10:41:26.934Z,16.43
2023-04-15T10:44:13.723Z,17.64
2023-04-15T10:47:00.660Z,18.05
2023-04-15T10:49:50.506Z,16.85
2023-04-15T10:52:44.126Z,15.68
2023-04-15T10:55:34.735Z,16.21
2023-04-15T10:58:26.224Z,17.55
2023-04-15T11:01:13.550Z,17.98
2023-04-15T11:04:00.030Z,16.90
2023-04-15T11:06:46.611Z,16.08
2023-04-15T11:09:34.601Z,17.04
2023-04-15T11:12:21.837Z,18.12
2023-04-15T11:15:33.614Z,17.47
2023-04-15T11:18:22.994Z,16.50
2023-04-15T11:21:09.774Z,16.47
2023-04-15T11:23:56.758Z,17.91
2023-04-15T11:26:43.356Z,18.29
2023-04-15T11:29:33.298Z,17.20
2023-04-15T11:32:21.700Z,16.12
2023-04-15T11:35:08.174Z,16.37
2023-04-15T11:37:55.863Z,17.55
2023-04-15T11:40:46.224Z,17.90
2023-04-15T11:43:35.423Z,16.82
2023-04-15T11:46:23.091Z,15.79
2023-04-15T11:49:09.677Z,16.21
2023-04-15T11:51:56.365Z,17.32
2023-04-15T11:54:42.976Z,16.92
2023-04-15T11:57:32.524Z,15.87
2023-04-15T12:00:20.997Z,15.69
2023-04-15T12:03:18.923Z,17.02
2023-04-15T12:06:20.690Z,17.33
2023-04-15T12:09:06.982Z,16.28
2023-04-15T12:11:58.289Z,15.77
2023-04-15T12:14:44.932Z,17.02
2023-04-15T12:17:31.754Z,17.86
2023-04-15T12:20:45.368Z,16.77
2023-04-15T12:23:31.838Z,15.77
2023-04-15T12:26:29.661Z,15.70
2023-04-15T12:29:17.464Z,17.20
2023-04-15T12:32:06.005Z,17.37
2023-04-15T12:34:56.847Z,16.42
2023-04-15T12:37:43.176Z,15.99
2023-04-15T12:40:29.911Z,17.15
2023-04-15T12:43:16.710Z,17.90
2023-04-15T12:46:02.950Z,17.05
2023-04-15T12:48:52.039Z,16.03
2023-04-15T12:51:38.096Z,15.80
2023-04-15T12:54:24.390Z,16.82
2023-04-15T12:57:11.199Z,17.25
2023-04-15T12:59:57.809Z,16.29
2023-04-15T13:02:44.928Z,15.46
2023-04-15T13:05:31.780Z,16.13
2023-04-15T13:08:19.438Z,17.41
2023-04-15T13:11:06.057Z,17.40
2023-04-15T13:13:52.971Z,16.28
2023-04-15T13:16:39.864Z,15.97
2023-04-15T13:19:26.971Z,17.12
2023-04-15T13:22:15.147Z,17.87
2023-04-15T13:25:01.339Z,17.00
2023-04-15T13:27:48.218Z,16.00
2023-04-15T13:30:37.593Z,16.43
2023-04-15T13:33:23.927Z,17.78
2023-04-15T13:36:10.437Z,18.06
2023-04-15T13:38:57.813Z,17.15
2023-04-15T13:41:44.289Z,16.31
2023-04-15T13:44:30.857Z,16.28
2023-04-15T13:47:19.782Z,17.70
2023-04-15T13:50:07.075Z,18.21
2023-04-15T13:52:53.422Z,17.10
2023-04-15T13:55:43.234Z,16.01
2023-04-15T13:58:29.466Z,15.97
2023-04-15T14:01:16.435Z,17.17
2023-04-15T14:04:03.168Z,17.22
2023-04-15T14:06:51.028Z,16.07
2023-04-15T14:09:43.002Z,16.03
2023-04-15T14:12:29.966Z,17.26
2023-04-15T14:15:16.342Z,17.70
2023-04-15T14:18:02.736Z,16.75
2023-04-15T14:20:49.460Z,15.68
2023-04-15T14:23:36.136Z,15.45
2023-04-15T14:26:22.336Z,16.73
2023-04-15T14:29:08.728Z,17.96
2023-04-15T14:32:07.678Z,18.14
2023-04-15T14:34:59.117Z,16.84
2023-04-15T14:37:45.753Z,16.05
2023-04-15T14:40:33.832Z,16.02
2023-04-15T14:43:21.407Z,17.38
2023-04-15T14:46:08.612Z,17.65
2023-04-15T14:48:55.003Z,16.57
2023-04-15T14:51:41.888Z,15.63
2023-04-15T14:54:28.309Z,15.43
2023-04-15T14:57:15.533Z,16.71
2023-04-15T15:00:03.021Z,17.75
2023-04-15T15:02:49.739Z,17.73
2023-04-15T15:05:36.537Z,16.27
2023-04-15T15:08:23.271Z,15.67
2023-04-15T15:11:10.070Z,16.89
2023-04-15T15:13:57.069Z,17.76
2023-04-15T15:16:44.180Z,17.53
2023-04-15T15:19:30.906Z,16.19
2023-04-15T15:22:19.422Z,15.22
2023-04-15T15:25:07.656Z,15.13
2023-04-15T15:27:53.915Z,16.54
2023-04-15T15:30:40.248Z,17.55
2023-04-15T15:33:28.582Z,17.49
2023-04-15T15:36:16.351Z,16.32
2023-04-15T15:39:04.945Z,15.27
2023-04-15T15:41:52.051Z,15.19
2023-04-15T15:44:38.934Z,16.67
2023-04-15T15:47:28.708Z,17.55
2023-04-15T15:50:15.483Z,16.89
2023-04-15T15:53:01.737Z,15.64
2023-04-15T15:55:48.428Z,16.11
2023-04-15T15:58:34.866Z,17.17
2023-04-15T16:01:21.996Z,16.84
2023-04-15T16:04:08.404Z,15.67
2023-04-15T16:06:55.340Z,15.41
2023-04-15T16:09:42.659Z,16.66
2023-04-15T16:12:28.983Z,17.48
2023-04-15T16:15:15.721Z,17.21
2023-04-15T16:18:02.265Z,16.01
2023-04-15T16:20:49.014Z,15.61
2023-04-15T16:23:37.008Z,16.82
2023-04-15T16:26:24.062Z,17.63
2023-04-15T16:29:10.259Z,17.17
2023-04-15T16:31:56.931Z,15.96
2023-04-15T16:34:43.901Z,15.54
2023-04-15T16:37:32.874Z,16.43
2023-04-15T16:40:19.499Z,17.33
2023-04-15T16:43:08.196Z,17.20
2023-04-15T16:45:54.752Z,16.02
2023-04-15T16:48:41.080Z,14.91
2023-04-15T16:51:30.531Z,14.83
2023-04-15T16:54:17.064Z,16.08
2023-04-15T16:57:04.067Z,16.81
2023-04-15T16:59:51.559Z,17.08
2023-04-15T17:02:38.187Z,15.90
2023-04-15T17:05:25.219Z,14.86
2023-04-15T17:08:11.926Z,15.52
2023-04-15T17:10:58.842Z,16.66
2023-04-15T17:13:45.851Z,17.34
2023-04-15T17:16:32.759Z,17.30
2023-04-15T17:19:18.979Z,15.95
2023-04-15T17:22:05.655Z,14.99
2023-04-15T17:24:52.367Z,15.65
2023-04-15T17:27:38.766Z,16.81
2023-04-15T17:30:25.600Z,17.35
2023-04-15T17:33:57.393Z,16.77
2023-04-15T17:36:18.763Z,15.22
2023-04-15T17:39:05.718Z,15.46
2023-04-15T17:41:52.330Z,16.35
2023-04-15T17:44:38.712Z,16.76
2023-04-15T17:47:25.302Z,16.56
2023-04-15T17:50:11.742Z,15.27
2023-04-15T17:52:58.464Z,14.70
2023-04-15T17:55:45.607Z,15.83
2023-04-15T17:58:31.911Z,16.64
2023-04-15T18:01:18.709Z,16.60
2023-04-15T18:04:05.945Z,15.23
2023-04-15T18:06:52.835Z,14.81
2023-04-15T18:09:39.577Z,15.95
2023-04-15T18:12:25.965Z,16.56
2023-04-15T18:15:14.515Z,16.25
2023-04-15T18:18:01.176Z,15.00
2023-04-15T18:20:47.802Z,15.58
2023-04-15T18:23:34.513Z,16.49
2023-04-15T18:26:22.065Z,17.20
2023-04-15T18:29:08.952Z,16.96
2023-04-15T18:31:56.054Z,15.53
2023-04-15T18:34:43.029Z,15.23
2023-04-15T18:37:29.485Z,16.34
2023-04-15T18:40:16.290Z,17.05
2023-04-15T18:43:02.628Z,16.47
2023-04-15T18:45:49.297Z,15.16
2023-04-15T18:48:35.938Z,14.92
2023-04-15T18:51:22.720Z,15.95
2023-04-15T18:54:09.273Z,16.76
2023-04-15T18:56:56.518Z,16.82
2023-04-15T18:59:43.542Z,15.54
2023-04-15T19:02:30.076Z,14.87
2023-04-15T19:05:16.646Z,15.82
2023-04-15T19:08:02.908Z,16.53
2023-04-15T19:10:50.074Z,16.65
2023-04-15T19:13:36.460Z,15.38
2023-04-15T19:16:23.011Z,14.84
2023-04-15T19:19:10.188Z,15.80
2023-04-15T19:21:57.706Z,16.38
2023-04-15T19:24:46.859Z,16.35
2023-04-15T19:27:33.194Z,15.18
2023-04-15T19:30:21.418Z,14.98
2023-04-15T19:33:07.832Z,16.01
2023-04-15T19:35:54.636Z,16.46
2023-04-15T19:38:41.029Z,15.72
2023-04-15T19:41:28.048Z,14.55
2023-04-15T19:44:15.026Z,14.31
2023-04-15T19:47:01.868Z,15.66
2023-04-15T19:49:49.491Z,16.48
2023-04-15T19:52:37.967Z,16.29
2023-04-15T19:55:24.534Z,15.12
2023-04-15T19:58:11.457Z,14.61
2023-04-15T20:00:58.572Z,15.71
2023-04-15T20:03:45.027Z,16.52
2023-04-15T20:06:31.946Z,17.11
2023-04-15T20:09:18.310Z,16.88
2023-04-15T20:12:49.414Z,15.47
2023-04-15T20:15:12.221Z,14.25
2023-04-15T20:17:59.060Z,14.68
2023-04-15T20:20:46.379Z,16.03
2023-04-15T20:23:32.892Z,16.52
2023-04-15T20:26:19.727Z,15.59
2023-04-15T20:29:06.490Z,14.41
2023-04-15T20:31:53.332Z,14.92
2023-04-15T20:34:43.071Z,16.02
2023-04-15T20:37:30.994Z,16.63
2023-04-15T20:40:17.305Z,16.33
2023-04-15T20:43:03.607Z,14.92
2023-04-15T20:45:50.838Z,14.46
2023-04-15T20:48:37.423Z,15.58
2023-04-15T20:51:24.085Z,16.31
2023-04-15T20:54:11.082Z,16.86
2023-04-15T20:56:58.219Z,16.00
2023-04-15T20:59:44.394Z,14.68
2023-04-15T21:02:31.540Z,14.51
2023-04-15T21:05:18.113Z,15.79
2023-04-15T21:08:04.341Z,16.54
2023-04-15T21:10:51.202Z,16.45
2023-04-15T21:13:37.976Z,15.24
2023-04-15T21:16:24.670Z,14.14
2023-04-15T21:19:11.022Z,14.78
2023-04-15T21:21:57.427Z,16.01
2023-04-15T21:24:43.676Z,16.67
2023-04-15T21:27:30.682Z,16.47
2023-04-15T21:30:17.264Z,15.08
2023-04-15T21:33:04.161Z,14.04
2023-04-15T21:35:51.336Z,14.84
2023-04-15T21:38:38.170Z,16.01
2023-04-15T21:41:24.748Z,16.67
2023-04-15T21:44:13.986Z,16.47
2023-04-15T21:47:02.105Z,15.13
2023-04-15T21:49:48.823Z,14.15
2023-04-15T21:52:35.597Z,15.13
2023-04-15T21:55:22.324Z,16.22
2023-04-15T21:58:08.643Z,16.37
2023-04-15T22:01:00.088Z,15.13
2023-04-15T22:03:46.962Z,14.42
2023-04-15T22:06:33.842Z,15.61
2023-04-15T22:09:20.646Z,16.44
2023-04-15T22:12:07.469Z,16.67
2023-04-15T22:14:55.759Z,15.43
2023-04-15T22:17:43.024Z,14.25
2023-04-15T22:20:29.673Z,13.99
2023-04-15T22:23:17.510Z,15.43
2023-04-15T22:26:05.493Z,16.37
2023-04-15T22:28:51.881Z,16.35
2023-04-15T22:31:38.318Z,15.13
2023-04-15T22:34:24.647Z,14.07
2023-04-15T22:37:11.809Z,14.64
2023-04-15T22:39:59.054Z,16.00
2023-04-15T22:42:46.258Z,16.71
2023-04-15T22:45:32.900Z,15.97
2023-04-15T22:48:19.328Z,14.57
2023-04-15T22:51:06.422Z,14.03
2023-04-15T22:53:53.277Z,15.36
2023-04-15T22:56:39.791Z,16.28
2023-04-15T22:59:26.174Z,16.34
2023-04-15T23:02:13.131Z,15.17
2023-04-15T23:05:00.164Z,14.08
2023-04-15T23:07:49.968Z,13.94
2023-04-15T23:10:36.620Z,15.36
2023-04-15T23:13:23.150Z,16.22
2023-04-15T23:16:09.760Z,16.15
2023-04-15T23:18:56.180Z,14.85
2023-04-15T23:21:42.680Z,13.85
2023-04-15T23:24:29.246Z,14.58
2023-04-15T23:27:17.705Z,15.90
2023-04-15T23:30:05.303Z,16.29
2023-04-15T23:32:51.858Z,15.08
2023-04-15T23:35:38.351Z,13.97
2023-04-15T23:38:24.832Z,13.68
2023-04-15T23:41:12.185Z,15.10
2023-04-15T23:43:58.843Z,16.23
2023-04-15T23:46:45.687Z,16.38
2023-04-15T23:49:32.136Z,15.17
2023-04-15T23:52:19.161Z,14.06
2023-04-15T23:55:06.803Z,13.83
2023-04-15T23:57:53.402Z,15.27
